TimeAKST,TemperatureF,Dew PointF,Humidity,Sea Level PressureIn,VisibilityMPH,Wind Direction,Wind SpeedMPH,Gust SpeedMPH,PrecipitationIn,Events,Conditions,WindDirDegrees,DateUTC
12:16 AM,30.2,26.6,86,30.15,10.0,North,3.5,-,N/A,,Overcast,350,2012-12-29 09:16:00
12:36 AM,30.2,26.6,86,30.15,10.0,NW,3.5,-,N/A,,Overcast,320,2012-12-29 09:36:00
12:56 AM,30.2,28.4,93,30.15,10.0,NNW,4.6,-,N/A,,Overcast,340,2012-12-29 09:56:00
1:16 AM,30.2,26.6,86,30.15,10.0,NNW,3.5,-,0.01,,Overcast,340,2012-12-29 10:16:00
1:36 AM,30.2,28.4,93,30.16,10.0,NW,4.6,-,0.01,,Overcast,320,2012-12-29 10:36:00
1:56 AM,30.2,28.4,93,30.17,10.0,North,4.6,-,0.01,,Overcast,350,2012-12-29 10:56:00
2:16 AM,30.2,28.4,93,30.17,10.0,Calm,Calm,-,N/A,,Overcast,0,2012-12-29 11:16:00
2:36 AM,30.2,26.6,86,30.17,10.0,NNW,4.6,-,N/A,,Overcast,340,2012-12-29 11:36:00
2:56 AM,30.2,26.6,86,30.18,10.0,NNW,5.8,-,N/A,,Overcast,330,2012-12-29 11:56:00
3:16 AM,30.2,26.6,86,30.17,10.0,North,4.6,-,N/A,,Overcast,350,2012-12-29 12:16:00
3:36 AM,30.2,26.6,86,30.17,10.0,NNW,6.9,-,N/A,,Overcast,330,2012-12-29 12:36:00
3:56 AM,30.2,26.6,86,30.18,10.0,NW,8.1,-,N/A,,Overcast,320,2012-12-29 12:56:00
4:16 AM,30.2,26.6,86,30.19,8.0,NW,4.6,-,N/A,,Overcast,310,2012-12-29 13:16:00
4:36 AM,30.2,26.6,86,30.20,10.0,NW,6.9,-,N/A,,Overcast,310,2012-12-29 13:36:00
4:56 AM,30.2,24.8,80,30.20,10.0,NW,5.8,-,0.01,,Overcast,320,2012-12-29 13:56:00
5:16 AM,30.2,26.6,86,30.20,10.0,Calm,Calm,-,N/A,,Overcast,0,2012-12-29 14:16:00
5:36 AM,30.2,26.6,86,30.19,10.0,NNW,3.5,-,N/A,,Overcast,330,2012-12-29 14:36:00
5:56 AM,30.2,26.6,86,30.20,10.0,WNW,4.6,-,N/A,,Mostly Cloudy,290,2012-12-29 14:56:00
6:16 AM,30.2,26.6,86,30.20,10.0,WNW,3.5,-,N/A,,Mostly Cloudy,300,2012-12-29 15:16:00
6:36 AM,30.2,26.6,86,30.20,10.0,NNW,4.6,-,N/A,,Mostly Cloudy,340,2012-12-29 15:36:00
6:56 AM,30.2,26.6,86,30.21,10.0,NNW,4.6,-,N/A,,Mostly Cloudy,330,2012-12-29 15:56:00
7:16 AM,30.2,26.6,86,30.21,10.0,NNW,3.5,-,N/A,,Mostly Cloudy,340,2012-12-29 16:16:00
7:36 AM,28.4,26.6,93,30.20,10.0,NNE,4.6,-,N/A,,Overcast,20,2012-12-29 16:36:00
7:56 AM,30.2,26.6,86,30.19,10.0,Calm,Calm,-,0.01,,Overcast,0,2012-12-29 16:56:00
8:16 AM,28.4,24.8,86,30.20,10.0,WNW,4.6,-,N/A,,Overcast,300,2012-12-29 17:16:00
8:36 AM,28.4,24.8,86,30.21,10.0,WNW,6.9,-,N/A,,Overcast,300,2012-12-29 17:36:00
8:56 AM,28.4,24.8,86,30.21,10.0,NW,3.5,-,N/A,,Overcast,310,2012-12-29 17:56:00
9:16 AM,30.2,26.6,86,30.21,10.0,Calm,Calm,-,N/A,,Overcast,0,2012-12-29 18:16:00
9:36 AM,30.2,26.6,86,30.20,10.0,Calm,Calm,-,N/A,,Overcast,0,2012-12-29 18:36:00
9:56 AM,30.2,28.4,93,30.21,10.0,NW,5.8,-,N/A,,Overcast,320,2012-12-29 18:56:00
10:16 AM,30.2,26.6,86,30.21,10.0,NNW,4.6,-,N/A,,Overcast,340,2012-12-29 19:16:00
10:36 AM,30.2,28.4,93,30.21,10.0,NNW,3.5,-,N/A,,Overcast,340,2012-12-29 19:36:00
10:56 AM,32.0,28.4,87,30.21,10.0,North,4.6,-,0.01,,Overcast,350,2012-12-29 19:56:00
11:16 AM,32.0,26.6,80,30.21,10.0,Calm,Calm,-,N/A,,Overcast,0,2012-12-29 20:16:00
11:36 AM,32.0,28.4,87,30.20,10.0,NNW,4.6,-,0.01,,Overcast,330,2012-12-29 20:36:00
11:56 AM,30.2,26.6,86,30.20,10.0,NW,3.5,-,0.02,,Overcast,310,2012-12-29 20:56:00
12:16 PM,30.2,28.4,93,30.20,10.0,NW,5.8,-,N/A,,Overcast,310,2012-12-29 21:16:00
12:36 PM,32.0,28.4,87,30.20,10.0,NW,5.8,-,0.01,,Overcast,320,2012-12-29 21:36:00
12:56 PM,30.2,26.6,86,30.20,10.0,NNW,4.6,-,0.02,,Overcast,330,2012-12-29 21:56:00
1:16 PM,32.0,26.6,80,30.21,10.0,North,4.6,-,N/A,,Overcast,350,2012-12-29 22:16:00
1:36 PM,32.0,28.4,87,30.21,10.0,Calm,Calm,-,0.01,,Overcast,0,2012-12-29 22:36:00
1:56 PM,33.8,28.4,81,30.20,10.0,Calm,Calm,-,0.01,,Mostly Cloudy,0,2012-12-29 22:56:00
2:16 PM,33.8,28.4,81,30.20,10.0,Calm,Calm,-,0.01,,Mostly Cloudy,0,2012-12-29 23:16:00
2:36 PM,33.8,28.4,81,30.19,10.0,Calm,Calm,-,0.02,,Mostly Cloudy,0,2012-12-29 23:36:00
2:56 PM,33.8,28.4,81,30.19,10.0,South,4.6,-,0.03,,Overcast,170,2012-12-29 23:56:00
3:16 PM,33.8,30.2,87,30.18,10.0,East,5.8,-,0.02,,Overcast,100,2012-12-30 00:16:00
3:36 PM,33.8,28.4,81,30.19,10.0,Calm,Calm,-,0.03,,Overcast,0,2012-12-30 00:36:00
3:56 PM,37.4,33.8,87,30.18,10.0,East,10.4,-,0.05,,Overcast,100,2012-12-30 00:56:00
4:16 PM,37.4,33.8,87,30.17,10.0,East,11.5,-,0.02,,Overcast,100,2012-12-30 01:16:00
4:36 PM,37.4,33.8,87,30.16,10.0,ESE,9.2,-,0.05,,Overcast,110,2012-12-30 01:36:00
5:16 PM,37.4,33.8,87,30.16,10.0,East,9.2,-,N/A,,Overcast,100,2012-12-30 02:16:00
5:36 PM,37.4,33.8,87,30.15,10.0,SSE,4.6,-,N/A,,Overcast,160,2012-12-30 02:36:00
5:56 PM,33.8,28.4,81,30.15,10.0,Calm,Calm,-,N/A,,Overcast,0,2012-12-30 02:56:00
6:16 PM,32.0,26.6,80,30.15,10.0,Calm,Calm,-,N/A,,Overcast,0,2012-12-30 03:16:00
6:36 PM,32.0,28.4,87,30.14,10.0,NNW,3.5,-,N/A,,Overcast,330,2012-12-30 03:36:00
6:56 PM,33.8,30.2,87,30.14,10.0,WNW,5.8,-,0.01,,Overcast,290,2012-12-30 03:56:00
7:16 PM,33.8,28.4,81,30.14,10.0,WNW,6.9,-,N/A,,Overcast,300,2012-12-30 04:16:00
7:36 PM,30.2,24.8,80,30.13,10.0,Calm,Calm,-,N/A,,Overcast,0,2012-12-30 04:36:00
7:56 PM,30.2,26.6,86,30.13,10.0,NNW,4.6,-,N/A,,Overcast,330,2012-12-30 04:56:00
8:16 PM,30.2,26.6,86,30.13,10.0,WNW,3.5,-,N/A,,Overcast,300,2012-12-30 05:16:00
8:36 PM,33.8,30.2,87,30.12,10.0,NE,3.5,-,N/A,,Overcast,40,2012-12-30 05:36:00
8:56 PM,35.6,30.2,81,30.11,10.0,East,10.4,-,N/A,,Mostly Cloudy,90,2012-12-30 05:56:00
9:16 PM,37.4,33.8,87,30.10,10.0,East,12.7,-,N/A,,Mostly Cloudy,90,2012-12-30 06:16:00
9:36 PM,37.4,33.8,87,30.09,10.0,East,12.7,-,N/A,,Mostly Cloudy,100,2012-12-30 06:36:00
9:56 PM,37.4,33.8,87,30.10,10.0,East,11.5,-,N/A,,Overcast,100,2012-12-30 06:56:00
10:16 PM,37.4,32.0,81,30.10,10.0,SSE,4.6,-,N/A,,Overcast,150,2012-12-30 07:16:00
10:36 PM,35.6,28.4,75,30.10,10.0,NW,4.6,-,N/A,,Overcast,310,2012-12-30 07:36:00
10:56 PM,33.8,28.4,81,30.11,10.0,NW,4.6,-,N/A,,Overcast,310,2012-12-30 07:56:00
11:16 PM,33.8,26.6,75,30.11,10.0,NW,5.8,-,N/A,,Overcast,320,2012-12-30 08:16:00
11:36 PM,33.8,26.6,75,30.10,10.0,West,6.9,-,N/A,,Overcast,260,2012-12-30 08:36:00
11:56 PM,37.4,33.8,87,30.09,10.0,East,13.8,-,N/A,,Overcast,100,2012-12-30 08:56:00